<?xml version="1.0" encoding="UTF-8" standalone="no" ?>
<gpx xmlns="http://www.topografix.com/GPX/1/1" xmlns:xsi="http://www.w3.org/2001/XMLSchema-instance" xsi:schemaLocation="http://www.topografix.com/GPX/1/1 http://www.topografix.com/GPX/1/1/gpx.xsd" version="1.1" creator="VisuGPX - https://www.visugpx.com">
  <metadata>
    <name>Parc</name>
    <desc><![CDATA[
]]></desc>
  </metadata>
  <trk>
    <name><![CDATA[Parc_1]]></name>
    <extensions>
      <line xmlns="http://www.topografix.com/GPX/gpx_style/0/2">
        <color>0000FF</color>
        <width>4</width>
      </line>
    </extensions>
    <trkseg>
      <trkpt lat="45.28055" lon="5.88592">
        <ele>240.44099426269</ele>
        <time>2017-09-05T10:46:30Z</time>
      </trkpt>
      <trkpt lat="45.2805" lon="5.88586">
        <ele>241.44099426269</ele>
        <time>2017-09-05T10:46:34Z</time>
      </trkpt>
      <trkpt lat="45.28045" lon="5.88579">
        <ele>244.44099426269</ele>
        <time>2017-09-05T10:46:36Z</time>
      </trkpt>
      <trkpt lat="45.28034" lon="5.88566">
        <ele>245.44099426269</ele>
        <time>2017-09-05T10:46:40Z</time>
      </trkpt>
      <trkpt lat="45.28029" lon="5.88558">
        <ele>245.44099426269</ele>
        <time>2017-09-05T10:46:42Z</time>
      </trkpt>
      <trkpt lat="45.2802" lon="5.88545">
        <ele>245.44000244141</ele>
        <time>2017-09-05T10:46:45Z</time>
      </trkpt>
      <trkpt lat="45.28017" lon="5.88538">
        <ele>246.44000244141</ele>
        <time>2017-09-05T10:46:47Z</time>
      </trkpt>
      <trkpt lat="45.2801" lon="5.88528">
        <ele>246.44000244141</ele>
        <time>2017-09-05T10:46:50Z</time>
      </trkpt>
      <trkpt lat="45.28005" lon="5.8852">
        <ele>248.44000244141</ele>
        <time>2017-09-05T10:46:52Z</time>
      </trkpt>
      <trkpt lat="45.28" lon="5.88515">
        <ele>247.44000244141</ele>
        <time>2017-09-05T10:46:54Z</time>
      </trkpt>
      <trkpt lat="45.27996" lon="5.8851">
        <ele>247.44000244141</ele>
        <time>2017-09-05T10:46:56Z</time>
      </trkpt>
      <trkpt lat="45.2799" lon="5.88505">
        <ele>247.44000244141</ele>
        <time>2017-09-05T10:46:58Z</time>
      </trkpt>
      <trkpt lat="45.27985" lon="5.88501">
        <ele>247.44000244141</ele>
        <time>2017-09-05T10:47:00Z</time>
      </trkpt>
      <trkpt lat="45.27979" lon="5.88497">
        <ele>247.44000244141</ele>
        <time>2017-09-05T10:47:02Z</time>
      </trkpt>
      <trkpt lat="45.27974" lon="5.88493">
        <ele>245.44000244141</ele>
        <time>2017-09-05T10:47:04Z</time>
      </trkpt>
      <trkpt lat="45.27968" lon="5.88489">
        <ele>245.44000244141</ele>
        <time>2017-09-05T10:47:06Z</time>
      </trkpt>
      <trkpt lat="45.27963" lon="5.88483">
        <ele>245.44000244141</ele>
        <time>2017-09-05T10:47:08Z</time>
      </trkpt>
      <trkpt lat="45.27957" lon="5.8848">
        <ele>244.44000244141</ele>
        <time>2017-09-05T10:47:10Z</time>
      </trkpt>
      <trkpt lat="45.27951" lon="5.88475">
        <ele>246.44000244141</ele>
        <time>2017-09-05T10:47:12Z</time>
      </trkpt>
      <trkpt lat="45.27946" lon="5.8847">
        <ele>247.44000244141</ele>
        <time>2017-09-05T10:47:14Z</time>
      </trkpt>
      <trkpt lat="45.27941" lon="5.88465">
        <ele>246.44000244141</ele>
        <time>2017-09-05T10:47:16Z</time>
      </trkpt>
      <trkpt lat="45.27936" lon="5.88459">
        <ele>246.44000244141</ele>
        <time>2017-09-05T10:47:18Z</time>
      </trkpt>
      <trkpt lat="45.27931" lon="5.88455">
        <ele>244.44000244141</ele>
        <time>2017-09-05T10:47:20Z</time>
      </trkpt>
      <trkpt lat="45.27926" lon="5.88449">
        <ele>243.44000244141</ele>
        <time>2017-09-05T10:47:22Z</time>
      </trkpt>
      <trkpt lat="45.27921" lon="5.88441">
        <ele>243.44000244141</ele>
        <time>2017-09-05T10:47:24Z</time>
      </trkpt>
      <trkpt lat="45.27916" lon="5.88435">
        <ele>244.44000244141</ele>
        <time>2017-09-05T10:47:26Z</time>
      </trkpt>
      <trkpt lat="45.27911" lon="5.88432">
        <ele>243.44000244141</ele>
        <time>2017-09-05T10:47:28Z</time>
      </trkpt>
      <trkpt lat="45.27906" lon="5.88428">
        <ele>241.44000244141</ele>
        <time>2017-09-05T10:47:30Z</time>
      </trkpt>
      <trkpt lat="45.27901" lon="5.88424">
        <ele>240.44000244141</ele>
        <time>2017-09-05T10:47:32Z</time>
      </trkpt>
      <trkpt lat="45.27895" lon="5.88422">
        <ele>237.44000244141</ele>
        <time>2017-09-05T10:47:34Z</time>
      </trkpt>
      <trkpt lat="45.27888" lon="5.88425">
        <ele>236.44000244141</ele>
        <time>2017-09-05T10:47:36Z</time>
      </trkpt>
      <trkpt lat="45.27883" lon="5.88429">
        <ele>234.44000244141</ele>
        <time>2017-09-05T10:47:38Z</time>
      </trkpt>
      <trkpt lat="45.27877" lon="5.88434">
        <ele>235.44000244141</ele>
        <time>2017-09-05T10:47:40Z</time>
      </trkpt>
      <trkpt lat="45.27872" lon="5.88438">
        <ele>233.44000244141</ele>
        <time>2017-09-05T10:47:42Z</time>
      </trkpt>
      <trkpt lat="45.27865" lon="5.88441">
        <ele>233.44000244141</ele>
        <time>2017-09-05T10:47:44Z</time>
      </trkpt>
      <trkpt lat="45.2786" lon="5.88445">
        <ele>233.44000244141</ele>
        <time>2017-09-05T10:47:46Z</time>
      </trkpt>
      <trkpt lat="45.27858" lon="5.88451">
        <ele>232.44000244141</ele>
        <time>2017-09-05T10:47:48Z</time>
      </trkpt>
      <trkpt lat="45.27858" lon="5.88459">
        <ele>233.44000244141</ele>
        <time>2017-09-05T10:47:50Z</time>
      </trkpt>
      <trkpt lat="45.27854" lon="5.88466">
        <ele>233.44000244141</ele>
        <time>2017-09-05T10:47:52Z</time>
      </trkpt>
      <trkpt lat="45.2785" lon="5.8847">
        <ele>232.44000244141</ele>
        <time>2017-09-05T10:47:54Z</time>
      </trkpt>
      <trkpt lat="45.27845" lon="5.88474">
        <ele>234.44000244141</ele>
        <time>2017-09-05T10:47:56Z</time>
      </trkpt>
      <trkpt lat="45.2784" lon="5.88478">
        <ele>235.44000244141</ele>
        <time>2017-09-05T10:47:58Z</time>
      </trkpt>
      <trkpt lat="45.27835" lon="5.88483">
        <ele>236.44000244141</ele>
        <time>2017-09-05T10:48:00Z</time>
      </trkpt>
      <trkpt lat="45.27829" lon="5.88484">
        <ele>236.44000244141</ele>
        <time>2017-09-05T10:48:02Z</time>
      </trkpt>
      <trkpt lat="45.27824" lon="5.88485">
        <ele>236.44000244141</ele>
        <time>2017-09-05T10:48:04Z</time>
      </trkpt>
      <trkpt lat="45.27818" lon="5.88486">
        <ele>237.44000244141</ele>
        <time>2017-09-05T10:48:06Z</time>
      </trkpt>
      <trkpt lat="45.27812" lon="5.88486">
        <ele>238.44000244141</ele>
        <time>2017-09-05T10:48:08Z</time>
      </trkpt>
      <trkpt lat="45.27806" lon="5.88485">
        <ele>237.44000244141</ele>
        <time>2017-09-05T10:48:10Z</time>
      </trkpt>
      <trkpt lat="45.27801" lon="5.88486">
        <ele>238.44000244141</ele>
        <time>2017-09-05T10:48:12Z</time>
      </trkpt>
      <trkpt lat="45.27796" lon="5.88489">
        <ele>237.44000244141</ele>
        <time>2017-09-05T10:48:14Z</time>
      </trkpt>
      <trkpt lat="45.2779" lon="5.88491">
        <ele>238.44000244141</ele>
        <time>2017-09-05T10:48:16Z</time>
      </trkpt>
      <trkpt lat="45.27785" lon="5.88493">
        <ele>240.44000244141</ele>
        <time>2017-09-05T10:48:18Z</time>
      </trkpt>
      <trkpt lat="45.27781" lon="5.88499">
        <ele>237.44000244141</ele>
        <time>2017-09-05T10:48:20Z</time>
      </trkpt>
      <trkpt lat="45.27777" lon="5.88505">
        <ele>238.44000244141</ele>
        <time>2017-09-05T10:48:22Z</time>
      </trkpt>
      <trkpt lat="45.27772" lon="5.88511">
        <ele>239.44000244141</ele>
        <time>2017-09-05T10:48:24Z</time>
      </trkpt>
      <trkpt lat="45.27769" lon="5.88518">
        <ele>237.44000244141</ele>
        <time>2017-09-05T10:48:26Z</time>
      </trkpt>
      <trkpt lat="45.27767" lon="5.88527">
        <ele>236.44000244141</ele>
        <time>2017-09-05T10:48:28Z</time>
      </trkpt>
      <trkpt lat="45.27765" lon="5.88537">
        <ele>236.44000244141</ele>
        <time>2017-09-05T10:48:30Z</time>
      </trkpt>
      <trkpt lat="45.27762" lon="5.88545">
        <ele>237.44000244141</ele>
        <time>2017-09-05T10:48:32Z</time>
      </trkpt>
      <trkpt lat="45.27759" lon="5.88553">
        <ele>237.44000244141</ele>
        <time>2017-09-05T10:48:34Z</time>
      </trkpt>
      <trkpt lat="45.27756" lon="5.88558">
        <ele>236.44000244141</ele>
        <time>2017-09-05T10:48:36Z</time>
      </trkpt>
      <trkpt lat="45.2775" lon="5.88563">
        <ele>237.44000244141</ele>
        <time>2017-09-05T10:48:38Z</time>
      </trkpt>
      <trkpt lat="45.2775" lon="5.88572">
        <ele>240.44000244141</ele>
        <time>2017-09-05T10:48:41Z</time>
      </trkpt>
      <trkpt lat="45.27756" lon="5.88578">
        <ele>238.44000244141</ele>
        <time>2017-09-05T10:48:43Z</time>
      </trkpt>
      <trkpt lat="45.27762" lon="5.88584">
        <ele>239.44000244141</ele>
        <time>2017-09-05T10:48:45Z</time>
      </trkpt>
      <trkpt lat="45.27766" lon="5.88592">
        <ele>239.44000244141</ele>
        <time>2017-09-05T10:48:47Z</time>
      </trkpt>
      <trkpt lat="45.2777" lon="5.88597">
        <ele>240.44000244141</ele>
        <time>2017-09-05T10:48:49Z</time>
      </trkpt>
      <trkpt lat="45.27774" lon="5.88604">
        <ele>241.44000244141</ele>
        <time>2017-09-05T10:48:51Z</time>
      </trkpt>
      <trkpt lat="45.27778" lon="5.88612">
        <ele>240.44000244141</ele>
        <time>2017-09-05T10:48:53Z</time>
      </trkpt>
      <trkpt lat="45.27781" lon="5.88621">
        <ele>239.44000244141</ele>
        <time>2017-09-05T10:48:55Z</time>
      </trkpt>
      <trkpt lat="45.27785" lon="5.88628">
        <ele>238.44000244141</ele>
        <time>2017-09-05T10:48:57Z</time>
      </trkpt>
      <trkpt lat="45.27789" lon="5.88636">
        <ele>238.44000244141</ele>
        <time>2017-09-05T10:48:59Z</time>
      </trkpt>
      <trkpt lat="45.27792" lon="5.88642">
        <ele>238.44000244141</ele>
        <time>2017-09-05T10:49:01Z</time>
      </trkpt>
      <trkpt lat="45.27795" lon="5.8865">
        <ele>237.44000244141</ele>
        <time>2017-09-05T10:49:03Z</time>
      </trkpt>
      <trkpt lat="45.27798" lon="5.88656">
        <ele>236.44000244141</ele>
        <time>2017-09-05T10:49:05Z</time>
      </trkpt>
      <trkpt lat="45.27801" lon="5.88663">
        <ele>238.44000244141</ele>
        <time>2017-09-05T10:49:07Z</time>
      </trkpt>
      <trkpt lat="45.27803" lon="5.8867">
        <ele>238.44000244141</ele>
        <time>2017-09-05T10:49:09Z</time>
      </trkpt>
      <trkpt lat="45.27807" lon="5.88678">
        <ele>239.44000244141</ele>
        <time>2017-09-05T10:49:11Z</time>
      </trkpt>
      <trkpt lat="45.27809" lon="5.88685">
        <ele>238.44000244141</ele>
        <time>2017-09-05T10:49:13Z</time>
      </trkpt>
      <trkpt lat="45.27812" lon="5.88692">
        <ele>237.44000244141</ele>
        <time>2017-09-05T10:49:15Z</time>
      </trkpt>
      <trkpt lat="45.27816" lon="5.88699">
        <ele>237.44000244141</ele>
        <time>2017-09-05T10:49:17Z</time>
      </trkpt>
      <trkpt lat="45.27819" lon="5.88707">
        <ele>235.44000244141</ele>
        <time>2017-09-05T10:49:19Z</time>
      </trkpt>
      <trkpt lat="45.27822" lon="5.88714">
        <ele>235.44000244141</ele>
        <time>2017-09-05T10:49:21Z</time>
      </trkpt>
      <trkpt lat="45.27825" lon="5.88722">
        <ele>235.44000244141</ele>
        <time>2017-09-05T10:49:23Z</time>
      </trkpt>
      <trkpt lat="45.27827" lon="5.88729">
        <ele>233.44000244141</ele>
        <time>2017-09-05T10:49:25Z</time>
      </trkpt>
      <trkpt lat="45.27831" lon="5.88734">
        <ele>233.44000244141</ele>
        <time>2017-09-05T10:49:27Z</time>
      </trkpt>
      <trkpt lat="45.27836" lon="5.8874">
        <ele>232.44000244141</ele>
        <time>2017-09-05T10:49:29Z</time>
      </trkpt>
      <trkpt lat="45.2784" lon="5.88746">
        <ele>229.44000244141</ele>
        <time>2017-09-05T10:49:31Z</time>
      </trkpt>
      <trkpt lat="45.27845" lon="5.88753">
        <ele>230.44000244141</ele>
        <time>2017-09-05T10:49:33Z</time>
      </trkpt>
      <trkpt lat="45.27848" lon="5.88759">
        <ele>229.44000244141</ele>
        <time>2017-09-05T10:49:35Z</time>
      </trkpt>
      <trkpt lat="45.27851" lon="5.88766">
        <ele>228.44000244141</ele>
        <time>2017-09-05T10:49:37Z</time>
      </trkpt>
      <trkpt lat="45.27856" lon="5.8877">
        <ele>229.44000244141</ele>
        <time>2017-09-05T10:49:39Z</time>
      </trkpt>
      <trkpt lat="45.2786" lon="5.88775">
        <ele>230.44000244141</ele>
        <time>2017-09-05T10:49:41Z</time>
      </trkpt>
      <trkpt lat="45.27864" lon="5.88781">
        <ele>228.44000244141</ele>
        <time>2017-09-05T10:49:43Z</time>
      </trkpt>
      <trkpt lat="45.27869" lon="5.88788">
        <ele>228.44000244141</ele>
        <time>2017-09-05T10:49:45Z</time>
      </trkpt>
      <trkpt lat="45.27875" lon="5.88794">
        <ele>229.44099426269</ele>
        <time>2017-09-05T10:49:47Z</time>
      </trkpt>
      <trkpt lat="45.2788" lon="5.88799">
        <ele>230.44099426269</ele>
        <time>2017-09-05T10:49:49Z</time>
      </trkpt>
      <trkpt lat="45.27886" lon="5.88802">
        <ele>231.44099426269</ele>
        <time>2017-09-05T10:49:51Z</time>
      </trkpt>
      <trkpt lat="45.27891" lon="5.88806">
        <ele>232.44099426269</ele>
        <time>2017-09-05T10:49:53Z</time>
      </trkpt>
      <trkpt lat="45.27896" lon="5.8881">
        <ele>232.44099426269</ele>
        <time>2017-09-05T10:49:55Z</time>
      </trkpt>
      <trkpt lat="45.27902" lon="5.88812">
        <ele>232.44099426269</ele>
        <time>2017-09-05T10:49:57Z</time>
      </trkpt>
      <trkpt lat="45.27909" lon="5.88812">
        <ele>231.44099426269</ele>
        <time>2017-09-05T10:49:59Z</time>
      </trkpt>
      <trkpt lat="45.27914" lon="5.88811">
        <ele>231.44099426269</ele>
        <time>2017-09-05T10:50:01Z</time>
      </trkpt>
      <trkpt lat="45.2792" lon="5.88811">
        <ele>231.44099426269</ele>
        <time>2017-09-05T10:50:03Z</time>
      </trkpt>
      <trkpt lat="45.27925" lon="5.88808">
        <ele>230.44099426269</ele>
        <time>2017-09-05T10:50:05Z</time>
      </trkpt>
      <trkpt lat="45.2793" lon="5.88804">
        <ele>230.44099426269</ele>
        <time>2017-09-05T10:50:07Z</time>
      </trkpt>
      <trkpt lat="45.27934" lon="5.88796">
        <ele>231.44099426269</ele>
        <time>2017-09-05T10:50:09Z</time>
      </trkpt>
      <trkpt lat="45.27937" lon="5.88791">
        <ele>231.44099426269</ele>
        <time>2017-09-05T10:50:11Z</time>
      </trkpt>
      <trkpt lat="45.27939" lon="5.88783">
        <ele>231.44099426269</ele>
        <time>2017-09-05T10:50:13Z</time>
      </trkpt>
      <trkpt lat="45.27942" lon="5.88775">
        <ele>232.44099426269</ele>
        <time>2017-09-05T10:50:15Z</time>
      </trkpt>
      <trkpt lat="45.27944" lon="5.88768">
        <ele>233.44099426269</ele>
        <time>2017-09-05T10:50:17Z</time>
      </trkpt>
      <trkpt lat="45.27945" lon="5.8876">
        <ele>233.44099426269</ele>
        <time>2017-09-05T10:50:19Z</time>
      </trkpt>
      <trkpt lat="45.27948" lon="5.88753">
        <ele>232.44099426269</ele>
        <time>2017-09-05T10:50:21Z</time>
      </trkpt>
      <trkpt lat="45.27949" lon="5.88743">
        <ele>230.44099426269</ele>
        <time>2017-09-05T10:50:24Z</time>
      </trkpt>
      <trkpt lat="45.27947" lon="5.88736">
        <ele>229.44099426269</ele>
        <time>2017-09-05T10:50:26Z</time>
      </trkpt>
      <trkpt lat="45.27941" lon="5.88731">
        <ele>233.44099426269</ele>
        <time>2017-09-05T10:50:29Z</time>
      </trkpt>
      <trkpt lat="45.27936" lon="5.88732">
        <ele>233.44099426269</ele>
        <time>2017-09-05T10:50:32Z</time>
      </trkpt>
      <trkpt lat="45.27931" lon="5.88729">
        <ele>233.44099426269</ele>
        <time>2017-09-05T10:50:34Z</time>
      </trkpt>
      <trkpt lat="45.27924" lon="5.88722">
        <ele>234.44099426269</ele>
        <time>2017-09-05T10:50:37Z</time>
      </trkpt>
      <trkpt lat="45.27918" lon="5.88716">
        <ele>234.44000244141</ele>
        <time>2017-09-05T10:50:39Z</time>
      </trkpt>
      <trkpt lat="45.27915" lon="5.88709">
        <ele>233.44000244141</ele>
        <time>2017-09-05T10:50:41Z</time>
      </trkpt>
      <trkpt lat="45.27911" lon="5.88703">
        <ele>233.44000244141</ele>
        <time>2017-09-05T10:50:43Z</time>
      </trkpt>
      <trkpt lat="45.27909" lon="5.88695">
        <ele>235.44000244141</ele>
        <time>2017-09-05T10:50:45Z</time>
      </trkpt>
      <trkpt lat="45.27906" lon="5.88686">
        <ele>235.44000244141</ele>
        <time>2017-09-05T10:50:47Z</time>
      </trkpt>
      <trkpt lat="45.27906" lon="5.88678">
        <ele>232.44000244141</ele>
        <time>2017-09-05T10:50:49Z</time>
      </trkpt>
      <trkpt lat="45.27904" lon="5.88671">
        <ele>234.44000244141</ele>
        <time>2017-09-05T10:50:51Z</time>
      </trkpt>
      <trkpt lat="45.27907" lon="5.88664">
        <ele>233.44000244141</ele>
        <time>2017-09-05T10:50:53Z</time>
      </trkpt>
      <trkpt lat="45.27912" lon="5.88661">
        <ele>234.44000244141</ele>
        <time>2017-09-05T10:50:55Z</time>
      </trkpt>
      <trkpt lat="45.27918" lon="5.88658">
        <ele>231.44000244141</ele>
        <time>2017-09-05T10:50:58Z</time>
      </trkpt>
      <trkpt lat="45.27923" lon="5.88657">
        <ele>231.44000244141</ele>
        <time>2017-09-05T10:51:00Z</time>
      </trkpt>
      <trkpt lat="45.27933" lon="5.88653">
        <ele>233.44000244141</ele>
        <time>2017-09-05T10:51:04Z</time>
      </trkpt>
      <trkpt lat="45.27938" lon="5.8865">
        <ele>233.44000244141</ele>
        <time>2017-09-05T10:51:06Z</time>
      </trkpt>
      <trkpt lat="45.27945" lon="5.88647">
        <ele>233.44000244141</ele>
        <time>2017-09-05T10:51:09Z</time>
      </trkpt>
      <trkpt lat="45.27952" lon="5.88647">
        <ele>235.44000244141</ele>
        <time>2017-09-05T10:51:11Z</time>
      </trkpt>
      <trkpt lat="45.27958" lon="5.88648">
        <ele>234.44000244141</ele>
        <time>2017-09-05T10:51:13Z</time>
      </trkpt>
      <trkpt lat="45.27964" lon="5.88648">
        <ele>234.44000244141</ele>
        <time>2017-09-05T10:51:15Z</time>
      </trkpt>
      <trkpt lat="45.27969" lon="5.88646">
        <ele>234.44000244141</ele>
        <time>2017-09-05T10:51:17Z</time>
      </trkpt>
      <trkpt lat="45.27976" lon="5.88645">
        <ele>233.44099426269</ele>
        <time>2017-09-05T10:51:19Z</time>
      </trkpt>
      <trkpt lat="45.27983" lon="5.88642">
        <ele>234.44099426269</ele>
        <time>2017-09-05T10:51:22Z</time>
      </trkpt>
      <trkpt lat="45.27989" lon="5.8864">
        <ele>235.44099426269</ele>
        <time>2017-09-05T10:51:24Z</time>
      </trkpt>
      <trkpt lat="45.27993" lon="5.88637">
        <ele>237.44099426269</ele>
        <time>2017-09-05T10:51:26Z</time>
      </trkpt>
      <trkpt lat="45.27999" lon="5.88637">
        <ele>236.44099426269</ele>
        <time>2017-09-05T10:51:28Z</time>
      </trkpt>
      <trkpt lat="45.28004" lon="5.88635">
        <ele>236.44099426269</ele>
        <time>2017-09-05T10:51:30Z</time>
      </trkpt>
      <trkpt lat="45.28011" lon="5.88633">
        <ele>237.44099426269</ele>
        <time>2017-09-05T10:51:32Z</time>
      </trkpt>
      <trkpt lat="45.28015" lon="5.88629">
        <ele>237.44099426269</ele>
        <time>2017-09-05T10:51:34Z</time>
      </trkpt>
      <trkpt lat="45.28025" lon="5.88626">
        <ele>239.44099426269</ele>
        <time>2017-09-05T10:51:38Z</time>
      </trkpt>
      <trkpt lat="45.2803" lon="5.88624">
        <ele>236.44099426269</ele>
        <time>2017-09-05T10:51:40Z</time>
      </trkpt>
      <trkpt lat="45.28035" lon="5.88623">
        <ele>236.44099426269</ele>
        <time>2017-09-05T10:51:42Z</time>
      </trkpt>
      <trkpt lat="45.28042" lon="5.88618">
        <ele>235.44099426269</ele>
        <time>2017-09-05T10:51:45Z</time>
      </trkpt>
      <trkpt lat="45.28047" lon="5.88615">
        <ele>236.44099426269</ele>
        <time>2017-09-05T10:51:47Z</time>
      </trkpt>
      <trkpt lat="45.28051" lon="5.88609">
        <ele>235.44099426269</ele>
        <time>2017-09-05T10:51:49Z</time>
      </trkpt>
      <trkpt lat="45.28052" lon="5.88601">
        <ele>234.44099426269</ele>
        <time>2017-09-05T10:51:51Z</time>
      </trkpt>
      <trkpt lat="45.28052" lon="5.88594">
        <ele>234.44099426269</ele>
        <time>2017-09-05T10:51:53Z</time>
      </trkpt>
      <trkpt lat="45.28055" lon="5.88589">
        <ele>237.44099426269</ele>
        <time>2017-09-05T10:51:57Z</time>
      </trkpt>
      <trkpt lat="45.28054" lon="5.8859">
        <ele>237.44099426269</ele>
        <time>2017-09-05T10:52:27Z</time>
      </trkpt>
      <trkpt lat="45.28054" lon="5.88593">
        <ele>241.44099426269</ele>
        <time>2017-09-05T10:55:25Z</time>
      </trkpt>
      <trkpt lat="45.28051" lon="5.88586">
        <ele>241.44099426269</ele>
        <time>2017-09-05T10:55:28Z</time>
      </trkpt>
      <trkpt lat="45.28045" lon="5.88581">
        <ele>241.44099426269</ele>
        <time>2017-09-05T10:55:30Z</time>
      </trkpt>
      <trkpt lat="45.28039" lon="5.88575">
        <ele>241.44099426269</ele>
        <time>2017-09-05T10:55:32Z</time>
      </trkpt>
      <trkpt lat="45.28033" lon="5.88569">
        <ele>241.44099426269</ele>
        <time>2017-09-05T10:55:34Z</time>
      </trkpt>
      <trkpt lat="45.28028" lon="5.88562">
        <ele>241.44099426269</ele>
        <time>2017-09-05T10:55:36Z</time>
      </trkpt>
      <trkpt lat="45.28023" lon="5.88554">
        <ele>241.44000244141</ele>
        <time>2017-09-05T10:55:38Z</time>
      </trkpt>
      <trkpt lat="45.28018" lon="5.88546">
        <ele>243.44000244141</ele>
        <time>2017-09-05T10:55:40Z</time>
      </trkpt>
      <trkpt lat="45.28014" lon="5.88538">
        <ele>241.44000244141</ele>
        <time>2017-09-05T10:55:42Z</time>
      </trkpt>
      <trkpt lat="45.28011" lon="5.88531">
        <ele>240.44000244141</ele>
        <time>2017-09-05T10:55:44Z</time>
      </trkpt>
      <trkpt lat="45.28002" lon="5.88519">
        <ele>241.44000244141</ele>
        <time>2017-09-05T10:55:47Z</time>
      </trkpt>
      <trkpt lat="45.27999" lon="5.88514">
        <ele>240.44000244141</ele>
        <time>2017-09-05T10:55:49Z</time>
      </trkpt>
      <trkpt lat="45.27995" lon="5.88508">
        <ele>238.44000244141</ele>
        <time>2017-09-05T10:55:52Z</time>
      </trkpt>
      <trkpt lat="45.27992" lon="5.88503">
        <ele>240.44000244141</ele>
        <time>2017-09-05T10:56:02Z</time>
      </trkpt>
      <trkpt lat="45.27987" lon="5.88498">
        <ele>240.44000244141</ele>
        <time>2017-09-05T10:56:05Z</time>
      </trkpt>
      <trkpt lat="45.27982" lon="5.88496">
        <ele>240.44000244141</ele>
        <time>2017-09-05T10:56:13Z</time>
      </trkpt>
      <trkpt lat="45.27976" lon="5.88492">
        <ele>239.44000244141</ele>
        <time>2017-09-05T10:56:16Z</time>
      </trkpt>
      <trkpt lat="45.27971" lon="5.88491">
        <ele>240.44000244141</ele>
        <time>2017-09-05T10:56:18Z</time>
      </trkpt>
      <trkpt lat="45.27968" lon="5.88486">
        <ele>239.44000244141</ele>
        <time>2017-09-05T10:56:20Z</time>
      </trkpt>
      <trkpt lat="45.27963" lon="5.88481">
        <ele>238.44000244141</ele>
        <time>2017-09-05T10:56:22Z</time>
      </trkpt>
      <trkpt lat="45.27959" lon="5.88479">
        <ele>237.44000244141</ele>
        <time>2017-09-05T10:56:24Z</time>
      </trkpt>
      <trkpt lat="45.27964" lon="5.88485">
        <ele>237.44000244141</ele>
        <time>2017-09-05T10:56:37Z</time>
      </trkpt>
      <trkpt lat="45.2797" lon="5.8849">
        <ele>237.44000244141</ele>
        <time>2017-09-05T10:56:39Z</time>
      </trkpt>
      <trkpt lat="45.27976" lon="5.88494">
        <ele>238.44000244141</ele>
        <time>2017-09-05T10:56:41Z</time>
      </trkpt>
      <trkpt lat="45.27981" lon="5.88498">
        <ele>238.44000244141</ele>
        <time>2017-09-05T10:56:43Z</time>
      </trkpt>
      <trkpt lat="45.27986" lon="5.88503">
        <ele>238.44000244141</ele>
        <time>2017-09-05T10:56:45Z</time>
      </trkpt>
      <trkpt lat="45.27991" lon="5.88509">
        <ele>237.44000244141</ele>
        <time>2017-09-05T10:56:47Z</time>
      </trkpt>
      <trkpt lat="45.27995" lon="5.88513">
        <ele>235.44000244141</ele>
        <time>2017-09-05T10:56:49Z</time>
      </trkpt>
      <trkpt lat="45.27999" lon="5.88518">
        <ele>234.44000244141</ele>
        <time>2017-09-05T10:56:51Z</time>
      </trkpt>
      <trkpt lat="45.28004" lon="5.88522">
        <ele>235.44000244141</ele>
        <time>2017-09-05T10:56:53Z</time>
      </trkpt>
      <trkpt lat="45.28008" lon="5.88527">
        <ele>235.44000244141</ele>
        <time>2017-09-05T10:56:55Z</time>
      </trkpt>
      <trkpt lat="45.28011" lon="5.88533">
        <ele>235.44000244141</ele>
        <time>2017-09-05T10:56:57Z</time>
      </trkpt>
      <trkpt lat="45.28015" lon="5.88539">
        <ele>236.44000244141</ele>
        <time>2017-09-05T10:56:59Z</time>
      </trkpt>
      <trkpt lat="45.28018" lon="5.88544">
        <ele>236.44000244141</ele>
        <time>2017-09-05T10:57:01Z</time>
      </trkpt>
      <trkpt lat="45.28021" lon="5.8855">
        <ele>236.44000244141</ele>
        <time>2017-09-05T10:57:03Z</time>
      </trkpt>
      <trkpt lat="45.28025" lon="5.88555">
        <ele>237.44000244141</ele>
        <time>2017-09-05T10:57:05Z</time>
      </trkpt>
      <trkpt lat="45.28029" lon="5.8856">
        <ele>237.44099426269</ele>
        <time>2017-09-05T10:57:07Z</time>
      </trkpt>
      <trkpt lat="45.28032" lon="5.88565">
        <ele>238.44099426269</ele>
        <time>2017-09-05T10:57:09Z</time>
      </trkpt>
      <trkpt lat="45.28036" lon="5.8857">
        <ele>238.44099426269</ele>
        <time>2017-09-05T10:57:11Z</time>
      </trkpt>
      <trkpt lat="45.28039" lon="5.88574">
        <ele>238.44099426269</ele>
        <time>2017-09-05T10:57:13Z</time>
      </trkpt>
      <trkpt lat="45.28044" lon="5.88579">
        <ele>237.44099426269</ele>
        <time>2017-09-05T10:57:16Z</time>
      </trkpt>
      <trkpt lat="45.28048" lon="5.88583">
        <ele>238.44099426269</ele>
        <time>2017-09-05T10:57:18Z</time>
      </trkpt>
      <trkpt lat="45.28052" lon="5.88588">
        <ele>238.44099426269</ele>
        <time>2017-09-05T10:57:21Z</time>
      </trkpt>
      <trkpt lat="45.28056" lon="5.88591">
        <ele>240.44099426269</ele>
        <time>2017-09-05T10:57:36Z</time>
      </trkpt>
      <trkpt lat="45.28061" lon="5.88591">
        <ele>239.44099426269</ele>
        <time>2017-09-05T10:57:40Z</time>
      </trkpt>
    </trkseg>
  </trk>
</gpx>